sensor_id;sensor_type;location;lat;lon;timestamp;pressure;altitude;pressure_sealevel;temperature;humidity
6853;BME280;3465;42.144;24.722;2023-02-23T00:01:23;145159.56;;;8.97;100.00
6853;BME280;3465;42.144;24.722;2023-02-23T00:03:50;145150.78;;;8.93;100.00
6853;BME280;3465;42.144;24.722;2023-02-23T00:06:17;145150.78;;;8.93;100.00
6853;BME280;3465;42.144;24.722;2023-02-23T00:08:43;145158.28;;;8.96;100.00
6853;BME280;3465;42.144;24.722;2023-02-23T00:11:10;145134.53;;;8.87;100.00
6853;BME280;3465;42.144;24.722;2023-02-23T00:13:36;145097.06;;;8.72;100.00
6853;BME280;3465;42.144;24.722;2023-02-23T00:16:07;145140.81;;;8.89;100.00
6853;BME280;3465;42.144;24.722;2023-02-23T00:18:34;145108.31;;;8.76;100.00
6853;BME280;3465;42.144;24.722;2023-02-23T00:21:14;145173.34;;;9.02;100.00
6853;BME280;3465;42.144;24.722;2023-02-23T00:23:41;145160.81;;;8.97;100.00
6853;BME280;3465;42.144;24.722;2023-02-23T00:26:07;145142.03;;;8.90;100.00
6853;BME280;3465;42.144;24.722;2023-02-23T00:28:32;145118.28;;;8.80;100.00
6853;BME280;3465;42.144;24.722;2023-02-23T00:31:01;145128.31;;;8.84;100.00
6853;BME280;3465;42.144;24.722;2023-02-23T00:33:26;145129.56;;;8.85;100.00
6853;BME280;3465;42.144;24.722;2023-02-23T00:35:54;145147.06;;;8.92;100.00
6853;BME280;3465;42.144;24.722;2023-02-23T00:38:19;145130.78;;;8.85;100.00
6853;BME280;3465;42.144;24.722;2023-02-23T00:40:44;145128.31;;;8.84;100.00
6853;BME280;3465;42.144;24.722;2023-02-23T00:43:10;145134.53;;;8.87;100.00
6853;BME280;3465;42.144;24.722;2023-02-23T00:45:36;145144.56;;;8.91;100.00
6853;BME280;3465;42.144;24.722;2023-02-23T00:48:01;145143.28;;;8.90;100.00
6853;BME280;3465;42.144;24.722;2023-02-23T00:50:27;145032.03;;;8.45;100.00
6853;BME280;3465;42.144;24.722;2023-02-23T00:52:55;145132.06;;;8.86;100.00
6853;BME280;3465;42.144;24.722;2023-02-23T00:55:23;145107.03;;;8.76;100.00
6853;BME280;3465;42.144;24.722;2023-02-23T00:57:49;145123.28;;;8.82;100.00
6853;BME280;3465;42.144;24.722;2023-02-23T01:00:15;145110.78;;;8.77;100.00
6853;BME280;3465;42.144;24.722;2023-02-23T01:02:45;145095.78;;;8.71;100.00
6853;BME280;3465;42.144;24.722;2023-02-23T01:05:11;145110.78;;;8.77;100.00
6853;BME280;3465;42.144;24.722;2023-02-23T01:07:37;145125.81;;;8.83;100.00
6853;BME280;3465;42.144;24.722;2023-02-23T01:10:04;145119.53;;;8.81;100.00
6853;BME280;3465;42.144;24.722;2023-02-23T01:12:47;145087.03;;;8.67;100.00
6853;BME280;3465;42.144;24.722;2023-02-23T01:15:14;145073.31;;;8.62;100.00
6853;BME280;3465;42.144;24.722;2023-02-23T01:17:39;145105.81;;;8.75;100.00
6853;BME280;3465;42.144;24.722;2023-02-23T01:20:08;145104.56;;;8.75;100.00
6853;BME280;3465;42.144;24.722;2023-02-23T01:22:48;145079.53;;;8.64;100.00
6853;BME280;3465;42.144;24.722;2023-02-23T01:25:15;145087.03;;;8.67;100.00
6853;BME280;3465;42.144;24.722;2023-02-23T01:27:41;145077.06;;;8.63;100.00
6853;BME280;3465;42.144;24.722;2023-02-23T01:30:09;145083.28;;;8.66;100.00
6853;BME280;3465;42.144;24.722;2023-02-23T01:32:35;145078.28;;;8.64;100.00
6853;BME280;3465;42.144;24.722;2023-02-23T01:35:08;145045.81;;;8.51;100.00
6853;BME280;3465;42.144;24.722;2023-02-23T01:37:36;145013.31;;;8.38;100.00
6853;BME280;3465;42.144;24.722;2023-02-23T01:40:05;145014.53;;;8.38;100.00
6853;BME280;3465;42.144;24.722;2023-02-23T01:42:40;145010.78;;;8.37;100.00
6853;BME280;3465;42.144;24.722;2023-02-23T01:45:32;144998.28;;;8.32;100.00
6853;BME280;3465;42.144;24.722;2023-02-23T01:48:06;144869.56;;;7.80;100.00
6853;BME280;3465;42.144;24.722;2023-02-23T01:50:50;144982.03;;;8.25;100.00
6853;BME280;3465;42.144;24.722;2023-02-23T01:53:18;144970.75;;;8.21;100.00
6853;BME280;3465;42.144;24.722;2023-02-23T01:55:52;144954.50;;;8.14;100.00
6853;BME280;3465;42.144;24.722;2023-02-23T01:58:21;144957.03;;;8.15;100.00
6853;BME280;3465;42.144;24.722;2023-02-23T02:00:50;144963.25;;;8.18;100.00
6853;BME280;3465;42.144;24.722;2023-02-23T02:03:46;144899.53;;;7.92;100.00
6853;BME280;3465;42.144;24.722;2023-02-23T02:06:15;144965.78;;;8.19;100.00
6853;BME280;3465;42.144;24.722;2023-02-23T02:08:45;144963.25;;;8.18;100.00
6853;BME280;3465;42.144;24.722;2023-02-23T02:11:16;144953.28;;;8.14;100.00
6853;BME280;3465;42.144;24.722;2023-02-23T02:14:08;144958.25;;;8.16;100.00
6853;BME280;3465;42.144;24.722;2023-02-23T02:19:36;144958.25;;;8.16;100.00
6853;BME280;3465;42.144;24.722;2023-02-23T02:44:58;144899.53;;;7.92;100.00
6853;BME280;3465;42.144;24.722;2023-02-23T02:50:26;144885.81;;;7.87;100.00
6853;BME280;3465;42.144;24.722;2023-02-23T02:56:08;144844.56;;;7.70;100.00
6853;BME280;3465;42.144;24.722;2023-02-23T02:58:36;144772.13;;;7.41;100.00
6853;BME280;3465;42.144;24.722;2023-02-23T03:01:08;144840.84;;;7.69;100.00
6853;BME280;3465;42.144;24.722;2023-02-23T03:03:56;144827.06;;;7.63;100.00
6853;BME280;3465;42.144;24.722;2023-02-23T03:06:46;144758.38;;;7.36;100.00
6853;BME280;3465;42.144;24.722;2023-02-23T03:09:43;144828.34;;;7.64;100.00
6853;BME280;3465;42.144;24.722;2023-02-23T03:15:36;144795.84;;;7.51;100.00
6853;BME280;3465;42.144;24.722;2023-02-23T03:21:32;144738.41;;;7.27;100.00
6853;BME280;3465;42.144;24.722;2023-02-23T03:30:38;144728.44;;;7.23;100.00
6853;BME280;3465;42.144;24.722;2023-02-23T03:33:37;144720.94;;;7.20;100.00
6853;BME280;3465;42.144;24.722;2023-02-23T03:36:26;144735.91;;;7.26;100.00
6853;BME280;3465;42.144;24.722;2023-02-23T03:42:03;144735.91;;;7.26;100.00
6853;BME280;3465;42.144;24.722;2023-02-23T03:44:49;144723.44;;;7.21;100.00
6853;BME280;3465;42.144;24.722;2023-02-23T03:47:37;144687.22;;;7.07;100.00
6853;BME280;3465;42.144;24.722;2023-02-23T03:50:35;144707.19;;;7.15;100.00
6853;BME280;3465;42.144;24.722;2023-02-23T03:53:25;144714.69;;;7.18;100.00
6853;BME280;3465;42.144;24.722;2023-02-23T03:56:12;144708.47;;;7.15;100.00
6853;BME280;3465;42.144;24.722;2023-02-23T03:59:01;144663.50;;;6.97;100.00
6853;BME280;3465;42.144;24.722;2023-02-23T04:01:48;144715.94;;;7.18;100.00
6853;BME280;3465;42.144;24.722;2023-02-23T04:04:34;144704.72;;;7.14;100.00
6853;BME280;3465;42.144;24.722;2023-02-23T04:07:19;144671.00;;;7.00;100.00
6853;BME280;3465;42.144;24.722;2023-02-23T04:10:04;144681.00;;;7.04;100.00
6853;BME280;3465;42.144;24.722;2023-02-23T04:12:59;144628.56;;;6.83;100.00
6853;BME280;3465;42.144;24.722;2023-02-23T04:18:20;144619.81;;;6.80;100.00
6853;BME280;3465;42.144;24.722;2023-02-23T04:20:46;144592.38;;;6.69;100.00
6853;BME280;3465;42.144;24.722;2023-02-23T04:23:11;144613.59;;;6.77;100.00
6853;BME280;3465;42.144;24.722;2023-02-23T04:25:37;144547.44;;;6.51;100.00
6853;BME280;3465;42.144;24.722;2023-02-23T04:28:02;144526.25;;;6.42;100.00
6853;BME280;3465;42.144;24.722;2023-02-23T04:30:28;144548.69;;;6.51;100.00
6853;BME280;3465;42.144;24.722;2023-02-23T04:32:54;144515.00;;;6.38;100.00
6853;BME280;3465;42.144;24.722;2023-02-23T04:35:20;144473.84;;;6.21;100.00
6853;BME280;3465;42.144;24.722;2023-02-23T04:37:45;144465.13;;;6.18;100.00
6853;BME280;3465;42.144;24.722;2023-02-23T04:40:11;144438.91;;;6.07;100.00
6853;BME280;3465;42.144;24.722;2023-02-23T04:42:38;144421.47;;;6.00;100.00
6853;BME280;3465;42.144;24.722;2023-02-23T04:45:05;144412.72;;;5.97;100.00
6853;BME280;3465;42.144;24.722;2023-02-23T04:47:30;144350.34;;;5.71;100.00
6853;BME280;3465;42.144;24.722;2023-02-23T04:49:56;144404.00;;;5.93;100.00
6853;BME280;3465;42.144;24.722;2023-02-23T04:52:21;144361.56;;;5.76;100.00
6853;BME280;3465;42.144;24.722;2023-02-23T04:54:46;144362.78;;;5.76;100.00
6853;BME280;3465;42.144;24.722;2023-02-23T04:57:12;144401.50;;;5.92;100.00
6853;BME280;3465;42.144;24.722;2023-02-23T04:59:37;144401.50;;;5.92;100.00
6853;BME280;3465;42.144;24.722;2023-02-23T05:02:03;144395.25;;;5.90;100.00
6853;BME280;3465;42.144;24.722;2023-02-23T05:04:29;144361.56;;;5.76;100.00
6853;BME280;3465;42.144;24.722;2023-02-23T05:06:54;144375.25;;;5.81;100.00
6853;BME280;3465;42.144;24.722;2023-02-23T05:09:19;144366.56;;;5.78;100.00
6853;BME280;3465;42.144;24.722;2023-02-23T05:11:45;144381.56;;;5.84;100.00
6853;BME280;3465;42.144;24.722;2023-02-23T05:14:10;144389.03;;;5.87;100.00
6853;BME280;3465;42.144;24.722;2023-02-23T05:16:36;144357.81;;;5.74;100.00
6853;BME280;3465;42.144;24.722;2023-02-23T05:19:02;144406.53;;;5.94;100.00
6853;BME280;3465;42.144;24.722;2023-02-23T05:21:27;144414.00;;;5.97;100.00
6853;BME280;3465;42.144;24.722;2023-02-23T05:23:53;144331.63;;;5.64;100.00
6853;BME280;3465;42.144;24.722;2023-02-23T05:26:18;144417.72;;;5.99;100.00
6853;BME280;3465;42.144;24.722;2023-02-23T05:28:44;144430.22;;;6.04;100.00
6853;BME280;3465;42.144;24.722;2023-02-23T05:31:10;144433.94;;;6.05;100.00
6853;BME280;3465;42.144;24.722;2023-02-23T05:33:36;144409.00;;;5.95;100.00
6853;BME280;3465;42.144;24.722;2023-02-23T05:36:11;144380.31;;;5.83;100.00
6853;BME280;3465;42.144;24.722;2023-02-23T05:38:38;144455.13;;;6.14;100.00
6853;BME280;3465;42.144;24.722;2023-02-23T05:41:06;144441.44;;;6.08;100.00
6853;BME280;3465;42.144;24.722;2023-02-23T05:43:32;144441.44;;;6.08;100.00
6853;BME280;3465;42.144;24.722;2023-02-23T05:45:57;144472.59;;;6.21;100.00
6853;BME280;3465;42.144;24.722;2023-02-23T05:48:24;144506.31;;;6.34;100.00
6853;BME280;3465;42.144;24.722;2023-02-23T05:50:50;144473.84;;;6.21;100.00
6853;BME280;3465;42.144;24.722;2023-02-23T05:53:15;144564.94;;;6.58;100.00
6853;BME280;3465;42.144;24.722;2023-02-23T05:55:41;144647.28;;;6.91;100.00
6853;BME280;3465;42.144;24.722;2023-02-23T05:58:06;144697.22;;;7.11;100.00
6853;BME280;3465;42.144;24.722;2023-02-23T06:00:32;144837.09;;;7.67;100.00
6853;BME280;3465;42.144;24.722;2023-02-23T06:02:57;144960.78;;;8.17;100.00
6853;BME280;3465;42.144;24.722;2023-02-23T06:05:22;145085.81;;;8.67;100.00
6853;BME280;3465;42.144;24.722;2023-02-23T06:07:48;145258.34;;;9.36;96.51
6853;BME280;3465;42.144;24.722;2023-02-23T06:10:14;145447.38;;;10.12;91.56
6853;BME280;3465;42.144;24.722;2023-02-23T06:12:39;145575.06;;;10.63;86.45
6853;BME280;3465;42.144;24.722;2023-02-23T06:15:05;145806.91;;;11.56;77.72
6853;BME280;3465;42.144;24.722;2023-02-23T06:17:31;145947.34;;;12.12;74.07
6853;BME280;3465;42.144;24.722;2023-02-23T06:19:56;145983.69;;;12.27;72.99
6853;BME280;3465;42.144;24.722;2023-02-23T06:22:23;146180.69;;;13.06;69.93
6853;BME280;3465;42.144;24.722;2023-02-23T06:24:48;146306.22;;;13.56;67.47
6853;BME280;3465;42.144;24.722;2023-02-23T06:27:14;146488.41;;;14.28;64.22
6853;BME280;3465;42.144;24.722;2023-02-23T06:29:40;146630.41;;;14.85;61.38
6853;BME280;3465;42.144;24.722;2023-02-23T06:32:06;146797.66;;;15.52;58.85
6853;BME280;3465;42.144;24.722;2023-02-23T06:34:31;146956.19;;;16.15;55.76
6853;BME280;3465;42.144;24.722;2023-02-23T06:36:58;147082.06;;;16.65;52.74
6853;BME280;3465;42.144;24.722;2023-02-23T06:39:24;147201.69;;;17.13;50.53
6853;BME280;3465;42.144;24.722;2023-02-23T06:41:49;147279.75;;;17.44;49.62
6853;BME280;3465;42.144;24.722;2023-02-23T06:44:14;147334.00;;;17.66;49.01
6853;BME280;3465;42.144;24.722;2023-02-23T06:46:40;147398.25;;;17.91;47.90
6853;BME280;3465;42.144;24.722;2023-02-23T06:49:05;147538.19;;;18.47;46.17
6853;BME280;3465;42.144;24.722;2023-02-23T06:51:30;147705.94;;;19.14;44.78
6853;BME280;3465;42.144;24.722;2023-02-23T06:53:56;147830.88;;;19.63;43.68
6853;BME280;3465;42.144;24.722;2023-02-23T06:56:22;147931.84;;;20.04;42.28
6853;BME280;3465;42.144;24.722;2023-02-23T06:58:47;147972.28;;;20.20;41.36
6853;BME280;3465;42.144;24.722;2023-02-23T07:01:13;148066.94;;;20.57;40.27
6853;BME280;3465;42.144;24.722;2023-02-23T07:03:40;148063.16;;;20.56;39.70
6853;BME280;3465;42.144;24.722;2023-02-23T07:06:05;147747.56;;;19.30;42.00
6853;BME280;3465;42.144;24.722;2023-02-23T07:08:32;147511.69;;;18.36;44.43
6853;BME280;3465;42.144;24.722;2023-02-23T07:11:09;147351.59;;;17.73;45.88
6853;BME280;3465;42.144;24.722;2023-02-23T07:13:35;147346.59;;;17.71;46.85
6853;BME280;3465;42.144;24.722;2023-02-23T07:16:01;147403.28;;;17.93;46.46
6853;BME280;3465;42.144;24.722;2023-02-23T07:18:27;147311.28;;;17.57;46.83
6853;BME280;3465;42.144;24.722;2023-02-23T07:20:53;147317.59;;;17.59;46.86
6853;BME280;3465;42.144;24.722;2023-02-23T07:23:18;147242.00;;;17.29;48.07
6853;BME280;3465;42.144;24.722;2023-02-23T07:25:43;147147.53;;;16.91;48.83
6853;BME280;3465;42.144;24.722;2023-02-23T07:28:09;146924.69;;;16.03;51.26
6853;BME280;3465;42.144;24.722;2023-02-23T07:30:38;146959.97;;;16.17;52.35
6853;BME280;3465;42.144;24.722;2023-02-23T07:33:03;147098.41;;;16.72;50.65
6853;BME280;3465;42.144;24.722;2023-02-23T07:35:29;146772.50;;;15.42;54.42
6853;BME280;3465;42.144;24.722;2023-02-23T07:37:54;146620.34;;;14.81;55.57
6853;BME280;3465;42.144;24.722;2023-02-23T07:40:20;146715.88;;;15.19;56.62
6853;BME280;3465;42.144;24.722;2023-02-23T07:42:45;146622.84;;;14.82;57.60
6853;BME280;3465;42.144;24.722;2023-02-23T07:45:10;146700.78;;;15.13;57.22
6853;BME280;3465;42.144;24.722;2023-02-23T07:47:36;146839.19;;;15.68;55.11
6853;BME280;3465;42.144;24.722;2023-02-23T07:50:04;146914.66;;;15.99;53.39
6853;BME280;3465;42.144;24.722;2023-02-23T07:52:39;146762.41;;;15.38;55.43
6853;BME280;3465;42.144;24.722;2023-02-23T07:55:05;146844.19;;;15.70;55.00
6853;BME280;3465;42.144;24.722;2023-02-23T07:57:32;146758.66;;;15.36;55.73
6853;BME280;3465;42.144;24.722;2023-02-23T07:59:57;146894.53;;;15.91;54.43
6853;BME280;3465;42.144;24.722;2023-02-23T08:02:23;146751.13;;;15.33;55.54
6853;BME280;3465;42.144;24.722;2023-02-23T08:04:48;146766.22;;;15.39;55.86
6853;BME280;3465;42.144;24.722;2023-02-23T08:07:15;146947.38;;;16.12;53.51
6853;BME280;3465;42.144;24.722;2023-02-23T08:09:40;147103.47;;;16.74;52.05
6853;BME280;3465;42.144;24.722;2023-02-23T08:12:06;147029.13;;;16.44;51.82
6853;BME280;3465;42.144;24.722;2023-02-23T08:14:31;147017.81;;;16.40;53.10
6853;BME280;3465;42.144;24.722;2023-02-23T08:16:57;146992.69;;;16.30;53.84
6853;BME280;3465;42.144;24.722;2023-02-23T08:19:22;147029.13;;;16.44;53.36
6853;BME280;3465;42.144;24.722;2023-02-23T08:21:49;147004.00;;;16.34;53.75
6853;BME280;3465;42.144;24.722;2023-02-23T08:24:15;146831.63;;;15.65;56.47
6853;BME280;3465;42.144;24.722;2023-02-23T08:26:40;147214.28;;;17.18;52.90
6853;BME280;3465;42.144;24.722;2023-02-23T08:29:06;147374.31;;;17.82;49.25
6853;BME280;3465;42.144;24.722;2023-02-23T08:31:32;147226.84;;;17.23;51.04
6853;BME280;3465;42.144;24.722;2023-02-23T08:33:57;147226.84;;;17.23;50.31
6853;BME280;3465;42.144;24.722;2023-02-23T08:36:22;147248.28;;;17.32;51.60
6853;BME280;3465;42.144;24.722;2023-02-23T08:38:48;147127.38;;;16.83;51.41
6853;BME280;3465;42.144;24.722;2023-02-23T08:41:14;147563.41;;;18.57;48.41
6853;BME280;3465;42.144;24.722;2023-02-23T08:43:39;147492.75;;;18.29;47.70
6853;BME280;3465;42.144;24.722;2023-02-23T08:46:06;147690.75;;;19.08;46.04
6853;BME280;3465;42.144;24.722;2023-02-23T08:48:32;147816.97;;;19.58;44.70
6853;BME280;3465;42.144;24.722;2023-02-23T08:50:58;148048.00;;;20.50;42.89
6853;BME280;3465;42.144;24.722;2023-02-23T08:53:24;147823.31;;;19.60;44.07
6853;BME280;3465;42.144;24.722;2023-02-23T08:55:55;147722.31;;;19.20;45.31
6853;BME280;3465;42.144;24.722;2023-02-23T08:58:21;147716.00;;;19.18;46.15
6853;BME280;3465;42.144;24.722;2023-02-23T09:00:47;147747.56;;;19.30;45.14
6853;BME280;3465;42.144;24.722;2023-02-23T09:03:13;147998.75;;;20.30;43.58
6853;BME280;3465;42.144;24.722;2023-02-23T09:05:38;147934.34;;;20.05;43.48
6853;BME280;3465;42.144;24.722;2023-02-23T09:08:04;147738.72;;;19.27;44.46
6853;BME280;3465;42.144;24.722;2023-02-23T09:10:29;147852.28;;;19.72;44.06
6853;BME280;3465;42.144;24.722;2023-02-23T09:12:56;147843.50;;;19.68;44.02
6853;BME280;3465;42.144;24.722;2023-02-23T09:15:21;147703.38;;;19.13;45.24
6853;BME280;3465;42.144;24.722;2023-02-23T09:17:47;147554.56;;;18.53;46.25
6853;BME280;3465;42.144;24.722;2023-02-23T09:20:14;147700.88;;;19.12;45.92
6853;BME280;3465;42.144;24.722;2023-02-23T09:22:43;147718.53;;;19.19;44.76
6853;BME280;3465;42.144;24.722;2023-02-23T09:25:17;147716.00;;;19.18;44.90
6853;BME280;3465;42.144;24.722;2023-02-23T09:27:46;147721.03;;;19.20;44.89
6853;BME280;3465;42.144;24.722;2023-02-23T09:30:12;147576.03;;;18.62;46.61
6853;BME280;3465;42.144;24.722;2023-02-23T09:32:43;147761.47;;;19.36;45.46
6853;BME280;3465;42.144;24.722;2023-02-23T09:35:09;147721.03;;;19.20;45.42
6853;BME280;3465;42.144;24.722;2023-02-23T09:37:34;147790.50;;;19.47;44.34
6853;BME280;3465;42.144;24.722;2023-02-23T09:40:00;147806.91;;;19.54;44.08
6853;BME280;3465;42.144;24.722;2023-02-23T09:45:25;147378.09;;;17.83;48.47
6853;BME280;3465;42.144;24.722;2023-02-23T09:48:16;147366.75;;;17.79;48.70
6853;BME280;3465;42.144;24.722;2023-02-23T09:50:51;147233.16;;;17.26;50.37
6853;BME280;3465;42.144;24.722;2023-02-23T09:53:29;147308.78;;;17.56;50.26
6853;BME280;3465;42.144;24.722;2023-02-23T09:55:57;147548.28;;;18.51;48.60
6853;BME280;3465;42.144;24.722;2023-02-23T09:58:29;147789.22;;;19.47;45.77
6853;BME280;3465;42.144;24.722;2023-02-23T10:01:11;147674.34;;;19.01;45.30
6853;BME280;3465;42.144;24.722;2023-02-23T10:06:14;148024.03;;;20.40;43.50
6853;BME280;3465;42.144;24.722;2023-02-23T10:19:02;148141.47;;;20.87;41.66
6853;BME280;3465;42.144;24.722;2023-02-23T10:21:35;147637.81;;;18.87;45.92
6853;BME280;3465;42.144;24.722;2023-02-23T10:24:28;147718.53;;;19.19;45.75
6853;BME280;3465;42.144;24.722;2023-02-23T10:27:06;147784.16;;;19.45;44.40
6853;BME280;3465;42.144;24.722;2023-02-23T10:29:39;147684.47;;;19.05;45.95
6853;BME280;3465;42.144;24.722;2023-02-23T10:32:16;147676.91;;;19.02;45.79
6853;BME280;3465;42.144;24.722;2023-02-23T10:34:44;147779.16;;;19.43;44.37
6853;BME280;3465;42.144;24.722;2023-02-23T10:37:15;147844.72;;;19.69;43.63
6853;BME280;3465;42.144;24.722;2023-02-23T10:39:41;147945.69;;;20.09;43.22
6853;BME280;3465;42.144;24.722;2023-02-23T10:42:13;148218.59;;;21.17;41.01
6853;BME280;3465;42.144;24.722;2023-02-23T10:44:42;148372.81;;;21.79;39.64
6853;BME280;3465;42.144;24.722;2023-02-23T10:47:15;148060.66;;;20.55;41.71
6853;BME280;3465;42.144;24.722;2023-02-23T10:49:48;147900.28;;;19.91;42.98
6853;BME280;3465;42.144;24.722;2023-02-23T10:52:34;147941.91;;;20.08;42.56
6853;BME280;3465;42.144;24.722;2023-02-23T10:55:04;147834.66;;;19.65;43.83
6853;BME280;3465;42.144;24.722;2023-02-23T10:57:33;147871.25;;;19.79;43.84
6853;BME280;3465;42.144;24.722;2023-02-23T11:02:29;147991.19;;;20.27;42.91
6853;BME280;3465;42.144;24.722;2023-02-23T11:04:57;147774.09;;;19.41;44.49
6853;BME280;3465;42.144;24.722;2023-02-23T11:07:25;147816.97;;;19.58;44.91
6853;BME280;3465;42.144;24.722;2023-02-23T11:09:54;147877.53;;;19.82;43.84
6853;BME280;3465;42.144;24.722;2023-02-23T11:12:35;148168.03;;;20.97;42.04
6853;BME280;3465;42.144;24.722;2023-02-23T11:15:27;148247.66;;;21.29;41.35
6853;BME280;3465;42.144;24.722;2023-02-23T11:17:57;148309.53;;;21.54;40.22
6853;BME280;3465;42.144;24.722;2023-02-23T11:20:36;148214.78;;;21.16;41.51
6853;BME280;3465;42.144;24.722;2023-02-23T11:23:11;148082.13;;;20.63;41.89
6853;BME280;3465;42.144;24.722;2023-02-23T11:25:42;148068.22;;;20.58;41.54
6853;BME280;3465;42.144;24.722;2023-02-23T11:28:20;147922.97;;;20.00;42.85
6853;BME280;3465;42.144;24.722;2023-02-23T11:30:48;147859.91;;;19.75;43.29
6853;BME280;3465;42.144;24.722;2023-02-23T11:33:16;148001.31;;;20.31;42.62
6853;BME280;3465;42.144;24.722;2023-02-23T11:35:43;148064.44;;;20.56;41.56
6853;BME280;3465;42.144;24.722;2023-02-23T11:41:05;147986.13;;;20.25;42.28
6853;BME280;3465;42.144;24.722;2023-02-23T11:43:47;147753.91;;;19.33;44.15
6853;BME280;3465;42.144;24.722;2023-02-23T11:46:13;147410.84;;;17.96;47.72
6853;BME280;3465;42.144;24.722;2023-02-23T11:51:28;147456.22;;;18.14;49.21
6853;BME280;3465;42.144;24.722;2023-02-23T11:53:54;147603.75;;;18.73;48.07
6853;BME280;3465;42.144;24.722;2023-02-23T11:56:22;147524.34;;;18.41;48.77
6853;BME280;3465;42.144;24.722;2023-02-23T11:58:54;147577.31;;;18.63;48.62
6853;BME280;3465;42.144;24.722;2023-02-23T12:01:42;147420.91;;;18.00;50.89
6853;BME280;3465;42.144;24.722;2023-02-23T12:04:24;147581.09;;;18.64;49.43
6853;BME280;3465;42.144;24.722;2023-02-23T12:07:16;147739.97;;;19.27;47.98
6853;BME280;3465;42.144;24.722;2023-02-23T12:09:43;147507.91;;;18.35;50.31
6853;BME280;3465;42.144;24.722;2023-02-23T12:12:14;147438.56;;;18.07;51.51
6853;BME280;3465;42.144;24.722;2023-02-23T12:20:04;147544.50;;;18.49;49.95
6853;BME280;3465;42.144;24.722;2023-02-23T12:22:39;147456.22;;;18.14;50.14
6853;BME280;3465;42.144;24.722;2023-02-23T12:25:27;147592.41;;;18.69;49.56
6853;BME280;3465;42.144;24.722;2023-02-23T12:28:03;147541.97;;;18.48;50.60
6853;BME280;3465;42.144;24.722;2023-02-23T12:30:54;147365.47;;;17.78;50.97
6853;BME280;3465;42.144;24.722;2023-02-23T12:33:30;147325.16;;;17.62;53.51
6853;BME280;3465;42.144;24.722;2023-02-23T12:36:17;147315.09;;;17.58;54.44
6853;BME280;3465;42.144;24.722;2023-02-23T12:42:21;147025.34;;;16.43;61.59
6853;BME280;3465;42.144;24.722;2023-02-23T12:44:52;147095.91;;;16.71;60.75
6853;BME280;3465;42.144;24.722;2023-02-23T12:50:31;147226.84;;;17.23;58.93
6853;BME280;3465;42.144;24.722;2023-02-23T12:58:27;147283.56;;;17.46;58.63
6853;BME280;3465;42.144;24.722;2023-02-23T13:01:03;147165.19;;;16.98;60.99
6853;BME280;3465;42.144;24.722;2023-02-23T13:14:29;146793.91;;;15.50;69.29
6853;BME280;3465;42.144;24.722;2023-02-23T13:17:04;146758.66;;;15.36;70.00
6853;BME280;3465;42.144;24.722;2023-02-23T13:19:49;146669.38;;;15.01;73.76
6853;BME280;3465;42.144;24.722;2023-02-23T13:24:50;146710.88;;;15.17;74.29
6853;BME280;3465;42.144;24.722;2023-02-23T13:27:35;146718.41;;;15.20;74.44
6853;BME280;3465;42.144;24.722;2023-02-23T13:30:02;146620.34;;;14.81;76.59
6853;BME280;3465;42.144;24.722;2023-02-23T13:32:31;146600.22;;;14.73;76.89
6853;BME280;3465;42.144;24.722;2023-02-23T13:35:17;146553.75;;;14.55;77.66
6853;BME280;3465;42.144;24.722;2023-02-23T13:37:58;146480.88;;;14.25;80.75
6853;BME280;3465;42.144;24.722;2023-02-23T13:40:30;146406.69;;;13.96;82.74
6853;BME280;3465;42.144;24.722;2023-02-23T13:43:46;146371.53;;;13.82;83.95
6853;BME280;3465;42.144;24.722;2023-02-23T13:56:22;146258.53;;;13.37;89.13
6853;BME280;3465;42.144;24.722;2023-02-23T13:58:53;146212.09;;;13.18;88.88
6853;BME280;3465;42.144;24.722;2023-02-23T14:01:25;146237.19;;;13.28;90.41
6853;BME280;3465;42.144;24.722;2023-02-23T14:03:55;146230.91;;;13.26;91.20
6853;BME280;3465;42.144;24.722;2023-02-23T14:06:25;146276.13;;;13.44;90.72
6853;BME280;3465;42.144;24.722;2023-02-23T14:08:56;146302.47;;;13.54;89.30
6853;BME280;3465;42.144;24.722;2023-02-23T14:11:50;146204.53;;;13.15;92.83
6853;BME280;3465;42.144;24.722;2023-02-23T14:22:26;146135.50;;;12.87;94.99
6853;BME280;3465;42.144;24.722;2023-02-23T14:36:00;146204.53;;;13.15;92.39
6853;BME280;3465;42.144;24.722;2023-02-23T14:40:53;146195.78;;;13.12;92.96
6853;BME280;3465;42.144;24.722;2023-02-23T14:43:45;146151.81;;;12.94;94.72
6853;BME280;3465;42.144;24.722;2023-02-23T14:46:23;146126.72;;;12.84;95.48
6853;BME280;3465;42.144;24.722;2023-02-23T14:49:01;146100.34;;;12.73;96.42
6853;BME280;3465;42.144;24.722;2023-02-23T14:54:52;145998.75;;;12.33;99.15
6853;BME280;3465;42.144;24.722;2023-02-23T14:57:00;145959.84;;;12.17;99.63
6853;BME280;3465;42.144;24.722;2023-02-23T14:59:40;146007.56;;;12.36;99.42
6853;BME280;3465;42.144;24.722;2023-02-23T15:02:08;145951.09;;;12.14;100.00
6853;BME280;3465;42.144;24.722;2023-02-23T15:04:34;145936.03;;;12.08;100.00
6853;BME280;3465;42.144;24.722;2023-02-23T15:07:03;145949.84;;;12.13;100.00
6853;BME280;3465;42.144;24.722;2023-02-23T15:09:39;145959.84;;;12.17;100.00
6853;BME280;3465;42.144;24.722;2023-02-23T15:12:16;146018.84;;;12.41;100.00
6853;BME280;3465;42.144;24.722;2023-02-23T15:14:43;146022.59;;;12.42;100.00
6853;BME280;3465;42.144;24.722;2023-02-23T15:17:16;146011.31;;;12.38;99.04
6853;BME280;3465;42.144;24.722;2023-02-23T15:19:43;146017.56;;;12.40;99.44
6853;BME280;3465;42.144;24.722;2023-02-23T15:22:19;145981.19;;;12.26;100.00
6853;BME280;3465;42.144;24.722;2023-02-23T15:24:47;145915.97;;;12.00;100.00
6853;BME280;3465;42.144;24.722;2023-02-23T15:27:23;145921.00;;;12.02;100.00
6853;BME280;3465;42.144;24.722;2023-02-23T15:29:51;145934.81;;;12.07;100.00
6853;BME280;3465;42.144;24.722;2023-02-23T15:32:21;145931.03;;;12.06;100.00
6853;BME280;3465;42.144;24.722;2023-02-23T15:34:50;145872.09;;;11.82;100.00
6853;BME280;3465;42.144;24.722;2023-02-23T15:37:33;145934.81;;;12.07;100.00
6853;BME280;3465;42.144;24.722;2023-02-23T15:40:06;145887.16;;;11.88;100.00